createdAt,value
2022-12-01T00:00:17.548Z,71.08
2022-12-01T00:01:39.279Z,70.98
2022-12-01T00:03:00.185Z,70.85
2022-12-01T00:04:22.631Z,71.00
2022-12-01T00:05:44.880Z,70.57
2022-12-01T00:07:07.701Z,70.58
2022-12-01T00:08:30.747Z,70.50
2022-12-01T00:10:09.831Z,70.62
2022-12-01T00:11:30.408Z,70.63
2022-12-01T00:12:56.132Z,70.41
2022-12-01T00:14:16.879Z,70.48
2022-12-01T00:15:38.877Z,70.46
2022-12-01T00:17:00.922Z,70.35
2022-12-01T00:18:23.218Z,70.32
2022-12-01T00:19:44.125Z,70.43
2022-12-01T00:21:07.915Z,70.34
2022-12-01T00:22:29.672Z,70.55
2022-12-01T00:23:54.045Z,70.45
2022-12-01T00:25:16.834Z,70.74
2022-12-01T00:26:37.440Z,70.56
2022-12-01T00:27:59.363Z,70.55
2022-12-01T00:29:22.435Z,70.50
2022-12-01T00:30:43.564Z,70.41
2022-12-01T00:32:05.521Z,70.30
2022-12-01T00:33:26.160Z,70.34
2022-12-01T00:34:47.895Z,70.65
2022-12-01T00:36:10.902Z,70.72
2022-12-01T00:37:31.577Z,70.51
2022-12-01T00:38:53.817Z,70.33
2022-12-01T00:40:15.617Z,70.21
2022-12-01T00:41:36.245Z,70.46
2022-12-01T00:42:57.580Z,70.33
2022-12-01T00:44:19.366Z,70.29
2022-12-01T00:45:41.033Z,70.29
2022-12-01T00:47:02.970Z,70.39
2022-12-01T00:48:23.946Z,70.51
2022-12-01T00:49:45.715Z,70.53
2022-12-01T00:51:07.654Z,70.54
2022-12-01T00:52:30.737Z,70.51
2022-12-01T00:53:51.017Z,70.40
2022-12-01T00:55:14.735Z,70.45
2022-12-01T00:56:37.365Z,70.67
2022-12-01T00:57:59.229Z,70.59
2022-12-01T00:59:20.262Z,70.48
2022-12-01T01:00:43.123Z,70.47
2022-12-01T01:02:08.335Z,70.42
2022-12-01T01:03:30.719Z,70.60
2022-12-01T01:04:52.032Z,71.11
2022-12-01T01:06:13.859Z,70.80
2022-12-01T01:07:37.244Z,71.06
2022-12-01T01:08:58.853Z,70.78
2022-12-01T01:10:19.556Z,70.65
2022-12-01T01:11:41.413Z,70.88
2022-12-01T01:13:04.692Z,70.78
2022-12-01T01:14:25.408Z,70.71
2022-12-01T01:15:46.729Z,70.65
2022-12-01T01:17:07.999Z,70.63
2022-12-01T01:18:29.042Z,70.87
2022-12-01T01:19:51.075Z,70.75
2022-12-01T01:21:13.091Z,70.88
2022-12-01T01:22:39.316Z,71.10
2022-12-01T01:23:59.929Z,70.89
2022-12-01T01:25:21.313Z,70.88
2022-12-01T01:26:42.707Z,70.72
2022-12-01T01:28:05.724Z,70.84
2022-12-01T01:29:27.422Z,70.85
2022-12-01T01:30:48.141Z,70.72
2022-12-01T01:32:09.951Z,70.83
2022-12-01T01:33:30.158Z,70.93
2022-12-01T01:34:54.536Z,70.81
2022-12-01T01:36:16.456Z,70.87
2022-12-01T01:37:39.376Z,70.76
2022-12-01T01:39:01.720Z,70.64
2022-12-01T01:40:23.405Z,70.71
2022-12-01T01:41:45.273Z,70.53
2022-12-01T01:43:10.565Z,70.40
2022-12-01T01:44:51.839Z,70.37
2022-12-01T01:46:12.969Z,70.15
2022-12-01T01:47:37.133Z,70.16
2022-12-01T01:49:00.580Z,70.35
2022-12-01T01:50:23.010Z,70.32
2022-12-01T01:51:47.788Z,70.55
2022-12-01T01:53:11.234Z,70.73
2022-12-01T01:54:35.170Z,70.54
2022-12-01T01:55:56.763Z,70.66
2022-12-01T01:57:20.902Z,70.91
2022-12-01T01:58:42.828Z,70.74
2022-12-01T02:00:07.475Z,70.72
2022-12-01T02:01:33.772Z,70.86
2022-12-01T02:02:56.571Z,70.79
2022-12-01T02:04:17.853Z,70.87
2022-12-01T02:05:38.394Z,70.81
2022-12-01T02:07:00.079Z,71.01
2022-12-01T02:08:22.893Z,70.87
2022-12-01T02:09:44.497Z,71.06
2022-12-01T02:11:11.474Z,70.79
2022-12-01T02:12:42.252Z,70.74
2022-12-01T02:14:08.775Z,70.67
2022-12-01T02:15:34.915Z,70.70
2022-12-01T02:17:00.412Z,70.63
2022-12-01T02:18:25.430Z,70.58
2022-12-01T02:20:20.261Z,70.41
2022-12-01T02:21:51.873Z,70.41
2022-12-01T02:23:33.230Z,70.53
2022-12-01T02:25:03.571Z,70.66
2022-12-01T02:26:34.628Z,70.53
2022-12-01T02:28:12.100Z,70.49
2022-12-01T02:29:45.890Z,70.50
2022-12-01T02:31:15.253Z,70.71
2022-12-01T02:32:51.588Z,70.76
2022-12-01T02:34:14.424Z,70.64
2022-12-01T02:35:44.869Z,70.44
2022-12-01T02:37:08.002Z,70.34
2022-12-01T02:38:31.269Z,70.42
2022-12-01T02:39:55.375Z,70.46
2022-12-01T02:41:20.637Z,70.31
2022-12-01T02:42:50.342Z,70.17
2022-12-01T02:44:15.385Z,70.23
2022-12-01T02:45:41.182Z,70.27
2022-12-01T02:47:06.507Z,70.31
2022-12-01T02:48:31.132Z,70.42
2022-12-01T02:49:55.759Z,70.50
2022-12-01T02:51:20.814Z,70.54
2022-12-01T02:52:43.924Z,70.62
2022-12-01T02:54:06.370Z,70.55
2022-12-01T02:55:26.979Z,70.67
2022-12-01T02:56:48.255Z,70.52
2022-12-01T02:58:14.138Z,70.53
2022-12-01T02:59:35.353Z,70.39
2022-12-01T03:01:08.473Z,70.39
2022-12-01T03:02:34.583Z,70.34
2022-12-01T03:04:09.810Z,70.40
2022-12-01T03:05:39.949Z,70.49
2022-12-01T03:07:06.288Z,70.50
2022-12-01T03:08:32.837Z,70.35
2022-12-01T03:10:01.149Z,70.39
2022-12-01T03:11:28.292Z,70.33
2022-12-01T03:12:55.535Z,70.37
2022-12-01T03:14:24.117Z,70.37
2022-12-01T03:15:49.057Z,70.26
2022-12-01T03:17:15.460Z,70.06
2022-12-01T03:18:40.067Z,69.99
2022-12-01T03:20:08.813Z,69.92
2022-12-01T03:21:33.889Z,69.90
2022-12-01T03:23:00.524Z,70.05
2022-12-01T03:24:23.982Z,69.92
2022-12-01T03:25:47.341Z,70.02
2022-12-01T03:27:11.090Z,70.11
2022-12-01T03:28:33.851Z,70.00
2022-12-01T03:29:58.949Z,70.18
2022-12-01T03:31:23.102Z,70.11
2022-12-01T03:32:48.379Z,70.17
2022-12-01T03:34:13.494Z,70.27
2022-12-01T03:35:38.254Z,70.08
2022-12-01T03:37:02.926Z,70.14
2022-12-01T03:38:24.585Z,70.08
2022-12-01T03:39:49.241Z,70.11
2022-12-01T03:41:13.670Z,70.17
2022-12-01T03:42:38.672Z,70.08
2022-12-01T03:44:04.183Z,70.00
2022-12-01T03:45:29.682Z,70.28
2022-12-01T03:46:53.999Z,70.19
2022-12-01T03:48:16.244Z,70.09
2022-12-01T03:49:41.291Z,70.11
2022-12-01T03:51:12.416Z,69.98
2022-12-01T03:52:40.954Z,69.95
2022-12-01T03:54:04.054Z,69.87
2022-12-01T03:55:27.550Z,69.85
2022-12-01T03:56:50.641Z,70.01
2022-12-01T03:58:13.799Z,69.85
2022-12-01T03:59:36.972Z,69.60
2022-12-01T04:00:59.382Z,69.50
2022-12-01T04:02:21.352Z,69.46
2022-12-01T04:03:42.193Z,69.82
2022-12-01T04:05:05.703Z,69.71
2022-12-01T04:06:26.287Z,69.71
2022-12-01T04:07:48.204Z,69.85
2022-12-01T04:09:08.723Z,70.03
2022-12-01T04:10:30.515Z,70.04
2022-12-01T04:12:09.338Z,70.10
2022-12-01T04:13:33.315Z,70.30
2022-12-01T04:14:55.032Z,70.49
2022-12-01T04:16:15.583Z,70.25
2022-12-01T04:17:37.751Z,70.20
2022-12-01T04:18:58.324Z,70.02
2022-12-01T04:20:21.620Z,69.90
2022-12-01T04:21:45.588Z,69.74
2022-12-01T04:23:07.498Z,69.88
2022-12-01T04:24:28.094Z,69.95
2022-12-01T04:25:50.021Z,69.81
2022-12-01T04:27:11.544Z,70.14
2022-12-01T04:28:32.349Z,69.99
2022-12-01T04:29:54.085Z,69.94
2022-12-01T04:31:14.924Z,69.98
2022-12-01T04:32:39.125Z,69.87
2022-12-01T04:34:01.452Z,69.69
2022-12-01T04:35:24.718Z,69.82
2022-12-01T04:36:47.012Z,69.84
2022-12-01T04:38:14.709Z,70.07
2022-12-01T04:39:36.583Z,70.05
2022-12-01T04:40:56.876Z,70.10
2022-12-01T04:42:18.762Z,70.24
2022-12-01T04:43:39.628Z,70.36
2022-12-01T04:45:01.411Z,70.34
2022-12-01T04:46:22.483Z,70.41
2022-12-01T04:47:44.145Z,70.54
2022-12-01T04:49:05.880Z,70.45
2022-12-01T04:50:29.126Z,70.37
2022-12-01T04:51:51.359Z,70.50
2022-12-01T04:53:13.199Z,70.33
2022-12-01T04:54:33.844Z,70.50
2022-12-01T04:55:55.462Z,70.40
2022-12-01T04:57:17.551Z,70.14
2022-12-01T04:58:38.860Z,70.40
2022-12-01T05:00:00.821Z,70.26
2022-12-01T05:01:21.608Z,70.19
2022-12-01T05:02:44.006Z,70.31
2022-12-01T05:04:06.093Z,70.23
2022-12-01T05:05:28.288Z,70.23
2022-12-01T05:06:49.816Z,70.30
2022-12-01T05:08:10.882Z,70.11
2022-12-01T05:09:32.431Z,70.15
2022-12-01T05:10:55.301Z,70.14
2022-12-01T05:12:17.443Z,69.98
2022-12-01T05:13:39.930Z,69.69
2022-12-01T05:15:01.641Z,69.64
2022-12-01T05:16:23.219Z,69.62
2022-12-01T05:17:45.575Z,69.57
2022-12-01T05:19:21.345Z,69.69
2022-12-01T05:20:58.648Z,69.71
2022-12-01T05:22:31.503Z,69.77
2022-12-01T05:24:02.201Z,70.01
2022-12-01T05:25:22.830Z,70.17
2022-12-01T05:26:45.189Z,70.02
2022-12-01T05:28:06.686Z,70.42
2022-12-01T05:29:28.552Z,70.36
2022-12-01T05:30:49.489Z,70.34
2022-12-01T05:32:11.212Z,70.37
2022-12-01T05:33:32.800Z,70.25
2022-12-01T05:34:54.229Z,70.35
2022-12-01T05:36:17.297Z,70.35
2022-12-01T05:37:38.150Z,70.39
2022-12-01T05:39:01.397Z,70.31
2022-12-01T05:40:22.096Z,70.50
2022-12-01T05:41:43.767Z,70.58
2022-12-01T05:43:04.613Z,70.47
2022-12-01T05:44:26.120Z,70.59
2022-12-01T05:45:46.633Z,70.66
2022-12-01T05:47:08.372Z,70.48
2022-12-01T05:48:29.216Z,70.49
2022-12-01T05:49:51.239Z,70.37
2022-12-01T05:51:14.222Z,70.50
2022-12-01T05:52:36.585Z,70.39
2022-12-01T05:54:00.143Z,70.48
2022-12-01T05:55:21.401Z,70.53
2022-12-01T05:56:43.126Z,70.61
2022-12-01T05:58:03.878Z,70.67
2022-12-01T05:59:25.690Z,70.47
2022-12-01T06:00:47.613Z,70.72
2022-12-01T06:02:08.229Z,70.72
2022-12-01T06:03:29.910Z,70.59
2022-12-01T06:04:50.269Z,70.41
2022-12-01T06:06:12.224Z,70.45
2022-12-01T06:07:34.794Z,70.48
2022-12-01T06:08:57.972Z,70.56
2022-12-01T06:10:18.808Z,70.39
2022-12-01T06:11:40.641Z,70.58
2022-12-01T06:13:01.369Z,70.58
2022-12-01T06:14:23.347Z,70.62
2022-12-01T06:15:45.141Z,70.45
2022-12-01T06:17:06.883Z,70.56
2022-12-01T06:18:28.412Z,70.51
2022-12-01T06:19:50.522Z,70.60
2022-12-01T06:21:12.437Z,70.80
2022-12-01T06:22:33.942Z,70.97
2022-12-01T06:23:55.607Z,70.77
2022-12-01T06:25:19.829Z,70.80
2022-12-01T06:26:40.552Z,70.81
2022-12-01T06:28:02.614Z,70.79
2022-12-01T06:29:23.557Z,70.75
2022-12-01T06:30:45.664Z,70.83
2022-12-01T06:32:32.892Z,70.77
2022-12-01T06:33:54.744Z,70.74
2022-12-01T06:35:16.362Z,70.76
2022-12-01T06:36:38.198Z,70.78
2022-12-01T06:38:00.041Z,70.77
2022-12-01T06:39:21.123Z,70.63
2022-12-01T06:40:44.871Z,70.46
2022-12-01T06:42:06.781Z,70.64
2022-12-01T06:43:28.775Z,70.58
2022-12-01T06:44:50.397Z,70.51
2022-12-01T06:46:12.179Z,70.86
2022-12-01T06:47:34.268Z,70.44
2022-12-01T06:48:58.853Z,70.33
2022-12-01T06:50:20.751Z,70.26
2022-12-01T06:51:45.332Z,70.00
2022-12-01T06:53:07.248Z,69.90
2022-12-01T06:54:28.748Z,69.90
2022-12-01T06:55:51.614Z,69.97
2022-12-01T06:57:13.432Z,70.06
2022-12-01T06:58:35.891Z,70.15
2022-12-01T06:59:58.426Z,70.21
2022-12-01T07:01:20.955Z,70.16
2022-12-01T07:02:42.950Z,70.17
2022-12-01T07:04:03.811Z,70.23
2022-12-01T07:05:36.067Z,70.14
2022-12-01T07:06:57.797Z,70.26
2022-12-01T07:08:21.093Z,70.01
2022-12-01T07:09:42.826Z,69.95
2022-12-01T07:11:05.397Z,69.93
2022-12-01T07:12:27.102Z,70.09
2022-12-01T07:13:50.430Z,70.06
2022-12-01T07:15:12.476Z,70.00
2022-12-01T07:16:33.370Z,69.89
2022-12-01T07:17:55.197Z,69.85
2022-12-01T07:19:18.756Z,69.85
2022-12-01T07:20:40.661Z,70.09
2022-12-01T07:22:04.224Z,69.98
2022-12-01T07:23:25.764Z,70.01
2022-12-01T07:24:47.219Z,70.04
2022-12-01T07:26:12.195Z,70.15
2022-12-01T07:27:33.856Z,70.06
2022-12-01T07:28:55.349Z,70.10
2022-12-01T07:30:17.150Z,70.05
2022-12-01T07:31:41.934Z,70.20
2022-12-01T07:33:03.786Z,70.15
2022-12-01T07:34:25.355Z,70.11
2022-12-01T07:35:46.808Z,70.13
2022-12-01T07:37:10.000Z,70.14
2022-12-01T07:38:34.775Z,70.01
2022-12-01T07:39:56.368Z,70.08
2022-12-01T07:41:20.412Z,70.00
2022-12-01T07:42:45.346Z,70.10
2022-12-01T07:44:07.103Z,70.04
2022-12-01T07:45:28.758Z,69.93
2022-12-01T07:46:52.176Z,69.83
2022-12-01T07:48:13.934Z,69.76
2022-12-01T07:49:37.475Z,69.62
2022-12-01T07:50:59.583Z,69.66
2022-12-01T07:52:21.375Z,69.54
2022-12-01T07:53:43.006Z,69.44
2022-12-01T07:55:04.552Z,69.24
2022-12-01T07:56:28.320Z,69.18
2022-12-01T07:57:53.531Z,69.37
2022-12-01T07:59:15.834Z,69.44
2022-12-01T08:00:37.981Z,69.41
2022-12-01T08:01:59.502Z,69.32
2022-12-01T08:03:20.734Z,69.46
2022-12-01T08:04:44.331Z,69.79
2022-12-01T08:06:06.605Z,69.90
2022-12-01T08:07:29.988Z,69.76
2022-12-01T08:08:54.161Z,69.60
2022-12-01T08:10:16.050Z,69.34
2022-12-01T08:11:39.307Z,69.29
2022-12-01T08:13:01.225Z,69.15
2022-12-01T08:14:23.107Z,69.03
2022-12-01T08:15:43.650Z,69.02
2022-12-01T08:17:05.492Z,69.37
2022-12-01T08:18:27.166Z,69.31
2022-12-01T08:19:49.568Z,69.44
2022-12-01T08:21:12.668Z,69.70
2022-12-01T08:22:36.090Z,69.72
2022-12-01T08:23:58.778Z,69.83
2022-12-01T08:25:20.721Z,69.96
2022-12-01T08:26:43.912Z,70.00
2022-12-01T08:28:05.057Z,70.07
2022-12-01T08:29:27.444Z,69.97
2022-12-01T08:30:52.049Z,70.04
2022-12-01T08:32:18.621Z,70.03
2022-12-01T08:33:40.416Z,69.88
2022-12-01T08:35:02.192Z,69.70
2022-12-01T08:36:24.857Z,69.87
2022-12-01T08:37:46.708Z,69.82
2022-12-01T08:39:09.079Z,69.71
2022-12-01T08:40:36.935Z,69.54
2022-12-01T08:42:03.204Z,69.34
2022-12-01T08:45:08.526Z,69.24
2022-12-01T08:47:37.253Z,69.19
2022-12-01T08:48:59.248Z,68.99
2022-12-01T08:50:20.812Z,69.09
2022-12-01T08:51:42.432Z,69.33
2022-12-01T08:53:13.159Z,69.35
2022-12-01T08:54:35.298Z,69.49
2022-12-01T08:55:59.359Z,69.12
2022-12-01T08:57:27.870Z,69.22
2022-12-01T08:58:54.714Z,69.34
2022-12-01T09:00:19.121Z,69.00
2022-12-01T09:01:52.379Z,69.14
2022-12-01T09:03:18.565Z,69.05
2022-12-01T09:04:41.622Z,69.06
2022-12-01T09:06:07.160Z,68.97
2022-12-01T09:07:31.191Z,68.71
2022-12-01T09:10:08.466Z,68.77
2022-12-01T09:11:27.349Z,69.02
2022-12-01T09:12:50.756Z,69.04
2022-12-01T09:14:16.529Z,69.06
2022-12-01T09:15:38.375Z,69.24
2022-12-01T09:17:21.241Z,69.34
2022-12-01T09:18:44.681Z,69.31
2022-12-01T09:20:07.261Z,69.24
2022-12-01T09:21:32.197Z,69.25
2022-12-01T09:22:54.124Z,69.25
2022-12-01T09:24:16.788Z,69.26
2022-12-01T09:25:39.412Z,69.29
2022-12-01T09:27:01.750Z,69.13
2022-12-01T09:28:24.167Z,69.21
2022-12-01T09:29:46.414Z,69.26
2022-12-01T09:31:09.710Z,69.30
2022-12-01T09:32:32.153Z,69.21
2022-12-01T09:33:59.426Z,69.31
2022-12-01T09:35:23.672Z,69.25
2022-12-01T09:36:46.398Z,69.37
2022-12-01T09:38:11.395Z,69.36
2022-12-01T09:39:35.856Z,69.21
2022-12-01T09:40:58.560Z,69.16
2022-12-01T09:42:30.845Z,69.12
2022-12-01T09:44:01.354Z,68.87
2022-12-01T09:45:26.896Z,69.02
2022-12-01T09:46:50.731Z,69.03
2022-12-01T09:48:19.602Z,68.93
2022-12-01T09:49:47.239Z,69.06
2022-12-01T09:51:10.823Z,68.89
2022-12-01T09:52:35.091Z,68.89
2022-12-01T09:53:58.291Z,68.82
2022-12-01T09:55:20.861Z,68.75
2022-12-01T09:56:45.427Z,68.51
2022-12-01T09:58:13.170Z,68.62
2022-12-01T09:59:42.898Z,68.47
2022-12-01T10:01:04.593Z,68.57
2022-12-01T10:02:30.710Z,68.60
2022-12-01T10:03:57.587Z,68.48
2022-12-01T10:05:22.685Z,68.49
2022-12-01T10:06:51.605Z,68.54
2022-12-01T10:08:16.168Z,68.50
2022-12-01T10:09:42.471Z,68.79
2022-12-01T10:11:08.069Z,68.63
2022-12-01T10:12:31.651Z,68.70
2022-12-01T10:13:53.300Z,68.58
2022-12-01T10:15:24.986Z,68.50
2022-12-01T10:16:48.745Z,68.40
2022-12-01T10:18:23.278Z,68.28
2022-12-01T10:19:48.820Z,68.47
2022-12-01T10:21:15.391Z,68.25
2022-12-01T10:22:51.885Z,68.47
2022-12-01T10:24:29.829Z,68.49
2022-12-01T10:25:57.289Z,68.37
2022-12-01T10:27:25.945Z,68.36
2022-12-01T10:28:54.311Z,68.47
2022-12-01T10:30:18.669Z,68.57
2022-12-01T10:31:46.829Z,68.38
2022-12-01T10:33:17.155Z,68.50
2022-12-01T10:34:43.430Z,68.48
2022-12-01T10:36:05.557Z,68.34
2022-12-01T10:37:31.481Z,68.39
2022-12-01T10:38:56.478Z,68.58
2022-12-01T10:40:19.132Z,68.45
2022-12-01T10:41:41.293Z,68.41
2022-12-01T10:43:03.932Z,68.38
2022-12-01T10:44:25.656Z,68.38
2022-12-01T10:45:47.601Z,68.46
2022-12-01T10:47:13.494Z,68.41
2022-12-01T10:48:35.134Z,68.37
2022-12-01T10:49:57.356Z,68.38
2022-12-01T10:51:20.722Z,68.34
2022-12-01T10:52:49.917Z,68.12
2022-12-01T10:54:12.824Z,68.21
2022-12-01T10:55:36.621Z,68.37
2022-12-01T10:56:58.814Z,68.40
2022-12-01T10:58:20.852Z,68.30
2022-12-01T10:59:50.110Z,68.28
2022-12-01T11:01:17.726Z,68.26
2022-12-01T11:02:40.328Z,68.39
2022-12-01T11:04:05.193Z,68.32
2022-12-01T11:05:27.990Z,68.31
2022-12-01T11:06:51.095Z,68.34
2022-12-01T11:08:24.105Z,68.30
2022-12-01T11:09:48.957Z,68.21
2022-12-01T11:11:24.508Z,68.22
2022-12-01T11:12:54.615Z,68.14
2022-12-01T11:14:18.995Z,68.21
2022-12-01T11:15:41.571Z,68.03
2022-12-01T11:17:16.849Z,68.10
2022-12-01T11:18:39.939Z,67.98
2022-12-01T11:20:24.253Z,68.16
2022-12-01T11:21:47.962Z,67.94
2022-12-01T11:23:28.707Z,67.95
2022-12-01T11:25:01.803Z,68.10
2022-12-01T11:26:26.191Z,67.87
2022-12-01T11:27:49.855Z,68.02
2022-12-01T11:29:27.930Z,67.73
2022-12-01T11:30:57.583Z,67.83
2022-12-01T11:32:22.817Z,67.64
2022-12-01T11:33:46.898Z,67.71
2022-12-01T11:35:18.097Z,67.53
2022-12-01T11:36:53.568Z,67.54
2022-12-01T11:38:29.920Z,67.66
2022-12-01T11:39:53.899Z,67.74
2022-12-01T11:41:26.693Z,67.57
2022-12-01T11:42:51.261Z,67.74
2022-12-01T11:46:03.932Z,67.83
2022-12-01T11:47:26.993Z,67.94
2022-12-01T11:49:00.224Z,67.85
2022-12-01T11:50:27.967Z,67.78
2022-12-01T11:51:50.179Z,67.55
2022-12-01T11:53:27.486Z,67.62
2022-12-01T11:54:58.120Z,67.78
2022-12-01T11:56:23.666Z,67.72
2022-12-01T11:57:48.965Z,67.71
2022-12-01T11:59:13.532Z,67.62
2022-12-01T12:00:43.891Z,67.60
2022-12-01T12:02:19.501Z,67.70
2022-12-01T12:03:49.492Z,67.80
2022-12-01T12:05:29.722Z,67.90
2022-12-01T12:06:57.652Z,67.94
2022-12-01T12:08:29.327Z,67.71
2022-12-01T12:09:59.172Z,67.61
2022-12-01T12:11:26.357Z,67.81
2022-12-01T12:12:58.626Z,67.70
2022-12-01T12:14:35.734Z,67.69
2022-12-01T12:16:04.491Z,67.56
2022-12-01T12:17:42.011Z,67.75
2022-12-01T12:19:13.449Z,67.66
2022-12-01T12:20:41.353Z,67.68
2022-12-01T12:22:09.452Z,67.72
2022-12-01T12:23:53.077Z,67.62
2022-12-01T12:25:24.307Z,67.63
2022-12-01T12:26:51.962Z,67.80
2022-12-01T12:28:23.754Z,67.85
2022-12-01T12:29:55.349Z,67.86
2022-12-01T12:31:22.717Z,67.90
2022-12-01T12:33:08.299Z,67.82
2022-12-01T12:34:34.714Z,67.84
2022-12-01T12:36:02.208Z,67.83
2022-12-01T12:37:26.555Z,67.60
2022-12-01T12:38:55.188Z,67.50
2022-12-01T12:40:24.441Z,67.49
2022-12-01T12:41:48.198Z,67.69
2022-12-01T12:43:21.347Z,67.43
2022-12-01T12:44:47.946Z,67.52
2022-12-01T12:46:11.670Z,67.61
2022-12-01T12:47:38.566Z,67.61
2022-12-01T12:49:23.725Z,67.50
2022-12-01T12:50:52.110Z,67.44
2022-12-01T12:52:15.338Z,67.66
2022-12-01T12:53:42.451Z,67.60
2022-12-01T12:55:12.511Z,68.04
2022-12-01T12:56:35.630Z,67.62
2022-12-01T12:58:05.450Z,67.74
2022-12-01T12:59:35.783Z,67.82
2022-12-01T13:01:00.260Z,67.70
2022-12-01T13:02:24.038Z,67.58
2022-12-01T13:03:52.706Z,67.65
2022-12-01T13:05:18.105Z,67.83
2022-12-01T13:06:41.788Z,67.64
2022-12-01T13:08:05.839Z,67.51
2022-12-01T13:09:29.870Z,67.42
2022-12-01T13:10:55.234Z,67.50
2022-12-01T13:12:20.001Z,67.66
2022-12-01T13:13:47.380Z,67.61
2022-12-01T13:15:16.086Z,67.75
2022-12-01T13:16:41.127Z,67.69
2022-12-01T13:18:05.019Z,67.60
2022-12-01T13:19:29.782Z,67.69
2022-12-01T13:20:55.774Z,67.74
2022-12-01T13:22:21.097Z,67.66
2022-12-01T13:23:43.169Z,67.33
2022-12-01T13:25:05.716Z,67.54
2022-12-01T13:26:27.780Z,67.42
2022-12-01T13:27:50.128Z,67.48
2022-12-01T13:29:16.157Z,67.35
2022-12-01T13:30:40.321Z,67.22
2022-12-01T13:32:02.685Z,67.19
2022-12-01T13:37:03.047Z,91.86
2022-12-01T13:38:30.771Z,93.50
2022-12-01T13:39:56.398Z,94.99
2022-12-01T13:41:27.741Z,96.07
2022-12-01T13:42:57.783Z,96.64
2022-12-01T13:44:27.891Z,97.22
2022-12-01T13:45:51.336Z,97.19
2022-12-01T13:47:32.465Z,88.80
2022-12-01T13:48:56.774Z,79.75
2022-12-01T13:50:56.821Z,77.73
2022-12-01T13:52:50.330Z,79.90
2022-12-01T13:54:30.776Z,78.38
2022-12-01T13:56:16.695Z,76.92
2022-12-01T13:57:41.989Z,75.61
2022-12-01T13:59:04.490Z,73.55
2022-12-01T14:00:29.881Z,71.46
2022-12-01T14:02:17.093Z,70.11
2022-12-01T14:03:41.923Z,68.56
2022-12-01T14:05:46.954Z,67.64
2022-12-01T14:07:33.427Z,66.34
2022-12-01T14:09:00.971Z,64.94
2022-12-01T14:10:31.961Z,63.97
2022-12-01T14:11:58.853Z,63.33
2022-12-01T14:13:22.627Z,62.69
2022-12-01T14:14:53.850Z,61.68
2022-12-01T14:16:17.023Z,61.69
2022-12-01T14:17:40.220Z,60.74
2022-12-01T14:19:03.327Z,60.22
2022-12-01T14:20:25.519Z,59.69
2022-12-01T14:21:52.434Z,59.30
2022-12-01T14:23:18.498Z,58.75
2022-12-01T14:24:44.691Z,58.45
2022-12-01T14:26:19.800Z,58.73
2022-12-01T14:27:44.773Z,57.88
2022-12-01T14:29:29.496Z,57.83
2022-12-01T14:31:05.333Z,57.90
2022-12-01T14:32:27.543Z,57.04
2022-12-01T14:33:54.426Z,56.57
2022-12-01T14:35:16.606Z,56.64
2022-12-01T14:36:41.940Z,56.40
2022-12-01T14:38:06.404Z,56.23
2022-12-01T14:39:32.197Z,56.01
2022-12-01T14:40:55.961Z,55.89
2022-12-01T14:42:43.503Z,55.75
2022-12-01T14:44:13.304Z,55.69
2022-12-01T14:45:41.020Z,55.54
2022-12-01T14:47:09.854Z,55.38
2022-12-01T14:48:38.892Z,54.85
2022-12-01T14:50:29.841Z,55.52
2022-12-01T14:51:57.337Z,55.09
2022-12-01T14:53:24.780Z,55.13
2022-12-01T14:54:50.703Z,54.89
2022-12-01T14:56:17.872Z,54.64
2022-12-01T14:57:42.744Z,54.52
2022-12-01T14:59:19.879Z,54.87
2022-12-01T15:00:57.073Z,54.50
2022-12-01T15:02:18.898Z,54.35
2022-12-01T15:03:45.233Z,54.40
2022-12-01T15:05:09.788Z,53.96
2022-12-01T15:06:33.548Z,53.68
2022-12-01T15:08:12.612Z,53.88
2022-12-01T15:10:02.409Z,54.43
2022-12-01T15:11:26.734Z,54.06
2022-12-01T15:12:49.633Z,53.89
2022-12-01T15:14:31.897Z,54.46
2022-12-01T15:15:56.414Z,54.98
2022-12-01T15:17:31.017Z,54.61
2022-12-01T15:18:53.972Z,54.08
2022-12-01T15:20:30.571Z,54.04
2022-12-01T15:21:53.254Z,54.13
2022-12-01T15:23:17.949Z,54.19
2022-12-01T15:24:40.077Z,53.92
2022-12-01T15:26:02.681Z,53.87
2022-12-01T15:27:31.601Z,53.58
2022-12-01T15:29:15.664Z,53.52
2022-12-01T15:30:37.985Z,53.57
2022-12-01T15:32:02.526Z,53.43
2022-12-01T15:33:30.681Z,53.49
2022-12-01T15:35:01.843Z,53.02
2022-12-01T15:36:24.321Z,53.26
2022-12-01T15:37:46.750Z,52.97
2022-12-01T15:39:15.077Z,52.66
2022-12-01T15:42:25.276Z,52.55
2022-12-01T15:43:56.371Z,52.49
2022-12-01T15:45:21.195Z,52.50
2022-12-01T15:46:43.984Z,52.36
2022-12-01T15:48:19.173Z,52.13
2022-12-01T15:49:49.984Z,51.73
2022-12-01T15:51:18.563Z,51.87
2022-12-01T15:52:46.091Z,51.96
2022-12-01T15:54:17.394Z,52.33
2022-12-01T15:55:40.564Z,52.04
2022-12-01T15:57:03.630Z,52.05
2022-12-01T15:58:30.372Z,51.64
2022-12-01T15:59:56.543Z,51.75
2022-12-01T16:01:23.737Z,51.53
2022-12-01T16:02:46.954Z,51.33
2022-12-01T16:04:20.032Z,51.50
2022-12-01T16:05:45.782Z,51.68
2022-12-01T16:07:11.165Z,51.56
2022-12-01T16:08:33.227Z,51.72
2022-12-01T16:09:58.371Z,52.12
2022-12-01T16:11:22.108Z,52.18
2022-12-01T16:12:44.645Z,51.88
2022-12-01T16:14:22.904Z,52.02
2022-12-01T16:15:46.966Z,52.05
2022-12-01T16:17:11.793Z,51.87
2022-12-01T16:18:35.797Z,51.83
2022-12-01T16:20:23.128Z,51.72
2022-12-01T16:21:47.929Z,51.74
2022-12-01T16:23:12.730Z,52.04
2022-12-01T16:24:37.033Z,51.56
2022-12-01T16:26:02.031Z,52.03
2022-12-01T16:27:26.927Z,51.88
2022-12-01T16:28:51.335Z,51.74
2022-12-01T16:30:22.829Z,51.70
2022-12-01T16:32:12.440Z,52.22
2022-12-01T16:33:32.824Z,51.60
2022-12-01T16:35:27.844Z,53.45
2022-12-01T16:36:49.870Z,53.19
2022-12-01T16:39:29.316Z,45.57
2022-12-01T16:40:57.943Z,41.07
2022-12-01T16:42:21.844Z,38.48
2022-12-01T16:44:05.402Z,36.39
2022-12-01T16:45:27.055Z,36.31
2022-12-01T16:46:49.269Z,36.23
2022-12-01T16:48:11.752Z,36.79
2022-12-01T16:49:33.650Z,37.20
2022-12-01T16:50:56.200Z,37.82
2022-12-01T16:54:06.762Z,39.93
2022-12-01T16:55:37.641Z,40.80
2022-12-01T16:56:59.592Z,41.99
2022-12-01T16:58:22.149Z,43.08
2022-12-01T16:59:44.207Z,43.77
2022-12-01T17:01:06.661Z,44.96
2022-12-01T17:02:31.812Z,45.74
2022-12-01T17:03:54.110Z,46.62
2022-12-01T17:05:15.814Z,47.24
2022-12-01T17:06:43.502Z,48.02
2022-12-01T17:08:06.361Z,48.77
2022-12-01T17:09:28.469Z,49.52
2022-12-01T17:10:52.639Z,50.15
2022-12-01T17:12:14.536Z,50.76
2022-12-01T17:13:46.840Z,51.62
2022-12-01T17:15:10.335Z,52.35
2022-12-01T17:16:33.120Z,52.94
2022-12-01T17:17:55.229Z,53.49
2022-12-01T17:19:17.723Z,54.06
2022-12-01T17:20:46.295Z,54.31
2022-12-01T17:22:08.786Z,54.83
2022-12-01T17:23:38.044Z,55.16
2022-12-01T17:25:06.514Z,55.47
2022-12-01T17:26:30.466Z,55.94
2022-12-01T17:27:55.072Z,56.18
2022-12-01T17:29:20.289Z,56.72
2022-12-01T17:30:43.091Z,57.14
2022-12-01T17:32:05.533Z,57.36
2022-12-01T17:33:47.168Z,57.71
2022-12-01T17:35:11.253Z,57.89
2022-12-01T17:36:39.511Z,58.09
2022-12-01T17:38:06.360Z,58.41
2022-12-01T17:39:28.895Z,58.57
2022-12-01T17:41:12.437Z,58.79
2022-12-01T17:42:49.987Z,59.16
2022-12-01T17:44:31.369Z,59.45
2022-12-01T17:46:06.627Z,59.63
2022-12-01T17:47:36.570Z,59.67
2022-12-01T17:49:24.874Z,60.00
2022-12-01T17:53:03.126Z,60.14
2022-12-01T17:54:27.803Z,60.49
2022-12-01T17:55:49.183Z,60.65
2022-12-01T17:57:13.149Z,60.51
2022-12-01T17:58:37.410Z,60.66
2022-12-01T18:00:01.612Z,60.92
2022-12-01T18:01:31.144Z,60.74
2022-12-01T18:02:53.624Z,61.14
2022-12-01T18:04:18.917Z,61.01
2022-12-01T18:05:41.432Z,61.37
2022-12-01T18:07:03.716Z,61.10
2022-12-01T18:08:26.637Z,61.28
2022-12-01T18:09:51.460Z,61.21
2022-12-01T18:11:18.473Z,61.27
2022-12-01T18:12:40.660Z,61.55
2022-12-01T18:14:17.919Z,61.54
2022-12-01T18:15:43.582Z,61.62
2022-12-01T18:17:25.362Z,61.64
2022-12-01T18:18:59.585Z,61.63
2022-12-01T18:20:58.132Z,61.77
2022-12-01T18:22:42.081Z,61.65
2022-12-01T18:24:07.912Z,61.93
2022-12-01T18:25:39.776Z,61.91
2022-12-01T18:27:06.012Z,62.13
2022-12-01T18:28:32.900Z,61.81
2022-12-01T18:29:56.434Z,62.18
2022-12-01T18:31:18.262Z,61.97
2022-12-01T18:32:40.591Z,61.99
2022-12-01T18:34:04.054Z,62.14
2022-12-01T18:35:31.552Z,62.10
2022-12-01T18:36:54.104Z,62.21
2022-12-01T18:38:16.224Z,62.13
2022-12-01T18:39:38.593Z,62.33